sensor_id;sensor_type;location;lat;lon;timestamp;P1;durP1;ratioP1;P2;durP2;ratioP2
10463;SDS011;5279;42.048;24.638;2023-06-14T00:00:49;3.63;;;3.33;;
10463;SDS011;5279;42.048;24.638;2023-06-14T00:03:17;3.80;;;3.50;;
10463;SDS011;5279;42.048;24.638;2023-06-14T00:05:47;3.73;;;3.43;;
10463;SDS011;5279;42.048;24.638;2023-06-14T00:08:18;3.10;;;2.90;;
10463;SDS011;5279;42.048;24.638;2023-06-14T00:10:46;3.93;;;3.40;;
10463;SDS011;5279;42.048;24.638;2023-06-14T00:13:13;4.37;;;3.10;;
10463;SDS011;5279;42.048;24.638;2023-06-14T00:15:40;3.80;;;3.40;;
10463;SDS011;5279;42.048;24.638;2023-06-14T00:18:07;4.43;;;3.50;;
10463;SDS011;5279;42.048;24.638;2023-06-14T00:20:37;3.40;;;3.10;;
10463;SDS011;5279;42.048;24.638;2023-06-14T00:23:04;3.93;;;3.63;;
10463;SDS011;5279;42.048;24.638;2023-06-14T00:25:33;3.43;;;3.10;;
10463;SDS011;5279;42.048;24.638;2023-06-14T00:28:00;3.83;;;3.43;;
10463;SDS011;5279;42.048;24.638;2023-06-14T00:30:27;3.77;;;3.47;;
10463;SDS011;5279;42.048;24.638;2023-06-14T00:32:55;3.90;;;3.27;;
10463;SDS011;5279;42.048;24.638;2023-06-14T00:35:23;3.27;;;2.97;;
10463;SDS011;5279;42.048;24.638;2023-06-14T00:37:50;3.53;;;3.23;;
10463;SDS011;5279;42.048;24.638;2023-06-14T00:40:19;4.17;;;3.77;;
10463;SDS011;5279;42.048;24.638;2023-06-14T00:42:48;3.17;;;2.97;;
10463;SDS011;5279;42.048;24.638;2023-06-14T00:45:15;4.40;;;3.50;;
10463;SDS011;5279;42.048;24.638;2023-06-14T00:47:42;4.27;;;3.53;;
10463;SDS011;5279;42.048;24.638;2023-06-14T00:50:09;3.47;;;3.17;;
10463;SDS011;5279;42.048;24.638;2023-06-14T00:52:38;3.70;;;3.40;;
10463;SDS011;5279;42.048;24.638;2023-06-14T00:55:06;5.67;;;3.57;;
10463;SDS011;5279;42.048;24.638;2023-06-14T00:57:33;3.50;;;3.30;;
10463;SDS011;5279;42.048;24.638;2023-06-14T01:00:04;3.60;;;3.30;;
10463;SDS011;5279;42.048;24.638;2023-06-14T01:02:34;3.80;;;3.50;;
10463;SDS011;5279;42.048;24.638;2023-06-14T01:05:01;3.03;;;2.83;;
10463;SDS011;5279;42.048;24.638;2023-06-14T01:07:41;3.43;;;3.13;;
10463;SDS011;5279;42.048;24.638;2023-06-14T01:10:20;3.90;;;3.50;;
10463;SDS011;5279;42.048;24.638;2023-06-14T01:12:56;6.93;;;3.53;;
10463;SDS011;5279;42.048;24.638;2023-06-14T01:15:31;3.20;;;2.87;;
10463;SDS011;5279;42.048;24.638;2023-06-14T01:17:58;3.60;;;3.30;;
10463;SDS011;5279;42.048;24.638;2023-06-14T01:20:28;3.83;;;3.53;;
10463;SDS011;5279;42.048;24.638;2023-06-14T01:22:57;3.27;;;2.77;;
10463;SDS011;5279;42.048;24.638;2023-06-14T01:25:25;3.80;;;3.50;;
10463;SDS011;5279;42.048;24.638;2023-06-14T01:27:53;3.47;;;3.10;;
10463;SDS011;5279;42.048;24.638;2023-06-14T01:30:24;3.50;;;3.20;;
10463;SDS011;5279;42.048;24.638;2023-06-14T01:32:52;4.03;;;3.73;;
10463;SDS011;5279;42.048;24.638;2023-06-14T01:35:21;3.53;;;3.20;;
10463;SDS011;5279;42.048;24.638;2023-06-14T01:37:48;4.07;;;3.60;;
10463;SDS011;5279;42.048;24.638;2023-06-14T01:40:17;3.80;;;3.50;;
10463;SDS011;5279;42.048;24.638;2023-06-14T01:42:45;4.93;;;3.67;;
10463;SDS011;5279;42.048;24.638;2023-06-14T01:45:14;4.23;;;3.73;;
10463;SDS011;5279;42.048;24.638;2023-06-14T01:47:42;4.10;;;3.70;;
10463;SDS011;5279;42.048;24.638;2023-06-14T01:50:10;4.50;;;4.07;;
10463;SDS011;5279;42.048;24.638;2023-06-14T01:52:37;4.30;;;3.90;;
10463;SDS011;5279;42.048;24.638;2023-06-14T01:55:05;4.47;;;3.83;;
10463;SDS011;5279;42.048;24.638;2023-06-14T01:57:34;4.33;;;3.93;;
10463;SDS011;5279;42.048;24.638;2023-06-14T02:00:01;3.50;;;3.20;;
10463;SDS011;5279;42.048;24.638;2023-06-14T02:02:28;3.30;;;3.07;;
10463;SDS011;5279;42.048;24.638;2023-06-14T02:04:55;4.03;;;3.63;;
10463;SDS011;5279;42.048;24.638;2023-06-14T02:07:23;3.57;;;3.27;;
10463;SDS011;5279;42.048;24.638;2023-06-14T02:09:50;4.50;;;3.23;;
10463;SDS011;5279;42.048;24.638;2023-06-14T02:12:17;3.87;;;3.57;;
10463;SDS011;5279;42.048;24.638;2023-06-14T02:14:45;3.80;;;3.50;;
10463;SDS011;5279;42.048;24.638;2023-06-14T02:17:13;3.67;;;3.43;;
10463;SDS011;5279;42.048;24.638;2023-06-14T02:19:41;5.90;;;3.80;;
10463;SDS011;5279;42.048;24.638;2023-06-14T02:22:08;5.07;;;3.63;;
10463;SDS011;5279;42.048;24.638;2023-06-14T02:24:35;4.53;;;3.80;;
10463;SDS011;5279;42.048;24.638;2023-06-14T02:27:03;4.93;;;3.67;;
10463;SDS011;5279;42.048;24.638;2023-06-14T02:29:31;5.00;;;4.50;;
10463;SDS011;5279;42.048;24.638;2023-06-14T02:32:00;6.20;;;4.00;;
10463;SDS011;5279;42.048;24.638;2023-06-14T02:34:27;4.90;;;4.37;;
10463;SDS011;5279;42.048;24.638;2023-06-14T02:36:54;4.60;;;4.20;;
10463;SDS011;5279;42.048;24.638;2023-06-14T02:39:20;4.43;;;4.03;;
10463;SDS011;5279;42.048;24.638;2023-06-14T02:41:48;4.77;;;4.27;;
10463;SDS011;5279;42.048;24.638;2023-06-14T02:44:16;4.30;;;3.90;;
10463;SDS011;5279;42.048;24.638;2023-06-14T02:46:44;4.67;;;4.27;;
10463;SDS011;5279;42.048;24.638;2023-06-14T02:49:12;4.03;;;3.63;;
10463;SDS011;5279;42.048;24.638;2023-06-14T02:51:39;4.10;;;3.80;;
10463;SDS011;5279;42.048;24.638;2023-06-14T02:54:07;4.13;;;3.73;;
10463;SDS011;5279;42.048;24.638;2023-06-14T02:56:33;4.10;;;3.70;;
10463;SDS011;5279;42.048;24.638;2023-06-14T02:59:01;4.20;;;3.80;;
10463;SDS011;5279;42.048;24.638;2023-06-14T03:01:28;5.37;;;3.90;;
10463;SDS011;5279;42.048;24.638;2023-06-14T03:03:59;5.80;;;4.13;;
10463;SDS011;5279;42.048;24.638;2023-06-14T03:06:28;4.73;;;3.77;;
10463;SDS011;5279;42.048;24.638;2023-06-14T03:08:56;3.93;;;3.63;;
10463;SDS011;5279;42.048;24.638;2023-06-14T03:11:25;4.30;;;3.90;;
10463;SDS011;5279;42.048;24.638;2023-06-14T03:13:51;5.83;;;4.20;;
10463;SDS011;5279;42.048;24.638;2023-06-14T03:16:18;3.97;;;3.67;;
10463;SDS011;5279;42.048;24.638;2023-06-14T03:18:46;4.33;;;3.93;;
10463;SDS011;5279;42.048;24.638;2023-06-14T03:21:15;4.93;;;4.03;;
10463;SDS011;5279;42.048;24.638;2023-06-14T03:23:47;5.83;;;4.17;;
10463;SDS011;5279;42.048;24.638;2023-06-14T03:26:14;4.13;;;3.80;;
10463;SDS011;5279;42.048;24.638;2023-06-14T03:28:43;4.20;;;3.77;;
10463;SDS011;5279;42.048;24.638;2023-06-14T03:31:10;4.80;;;4.33;;
10463;SDS011;5279;42.048;24.638;2023-06-14T03:33:37;4.30;;;4.00;;
10463;SDS011;5279;42.048;24.638;2023-06-14T03:36:05;4.17;;;3.77;;
10463;SDS011;5279;42.048;24.638;2023-06-14T03:38:33;4.10;;;3.80;;
10463;SDS011;5279;42.048;24.638;2023-06-14T03:41:01;3.63;;;3.33;;
10463;SDS011;5279;42.048;24.638;2023-06-14T03:43:28;4.23;;;3.83;;
10463;SDS011;5279;42.048;24.638;2023-06-14T03:45:56;5.40;;;4.67;;
10463;SDS011;5279;42.048;24.638;2023-06-14T03:48:23;4.77;;;4.37;;
10463;SDS011;5279;42.048;24.638;2023-06-14T03:50:50;5.90;;;4.70;;
10463;SDS011;5279;42.048;24.638;2023-06-14T03:53:17;4.93;;;4.53;;
10463;SDS011;5279;42.048;24.638;2023-06-14T03:55:45;4.70;;;4.30;;
10463;SDS011;5279;42.048;24.638;2023-06-14T03:58:15;4.63;;;4.17;;
10463;SDS011;5279;42.048;24.638;2023-06-14T04:00:41;7.27;;;4.77;;
10463;SDS011;5279;42.048;24.638;2023-06-14T04:03:08;5.10;;;4.70;;
10463;SDS011;5279;42.048;24.638;2023-06-14T04:05:35;5.00;;;4.60;;
10463;SDS011;5279;42.048;24.638;2023-06-14T04:08:02;5.90;;;5.07;;
10463;SDS011;5279;42.048;24.638;2023-06-14T04:10:29;4.93;;;4.53;;
10463;SDS011;5279;42.048;24.638;2023-06-14T04:12:56;5.27;;;4.80;;
10463;SDS011;5279;42.048;24.638;2023-06-14T04:15:33;5.20;;;4.70;;
10463;SDS011;5279;42.048;24.638;2023-06-14T04:18:00;5.17;;;4.67;;
10463;SDS011;5279;42.048;24.638;2023-06-14T04:20:27;5.40;;;4.90;;
10463;SDS011;5279;42.048;24.638;2023-06-14T04:22:56;6.20;;;4.93;;
10463;SDS011;5279;42.048;24.638;2023-06-14T04:25:23;5.50;;;4.53;;
10463;SDS011;5279;42.048;24.638;2023-06-14T04:27:51;5.67;;;4.60;;
10463;SDS011;5279;42.048;24.638;2023-06-14T04:30:18;8.03;;;4.87;;
10463;SDS011;5279;42.048;24.638;2023-06-14T04:32:47;4.90;;;4.50;;
10463;SDS011;5279;42.048;24.638;2023-06-14T04:35:18;8.37;;;4.67;;
10463;SDS011;5279;42.048;24.638;2023-06-14T04:37:45;5.23;;;4.73;;
10463;SDS011;5279;42.048;24.638;2023-06-14T04:40:12;5.53;;;4.70;;
10463;SDS011;5279;42.048;24.638;2023-06-14T04:42:39;5.00;;;4.40;;
10463;SDS011;5279;42.048;24.638;2023-06-14T04:45:10;7.47;;;4.37;;
10463;SDS011;5279;42.048;24.638;2023-06-14T04:47:38;5.63;;;4.77;;
10463;SDS011;5279;42.048;24.638;2023-06-14T04:50:07;5.30;;;4.83;;
10463;SDS011;5279;42.048;24.638;2023-06-14T04:52:36;5.13;;;4.63;;
10463;SDS011;5279;42.048;24.638;2023-06-14T04:55:03;5.20;;;4.67;;
10463;SDS011;5279;42.048;24.638;2023-06-14T04:57:31;5.47;;;4.27;;
10463;SDS011;5279;42.048;24.638;2023-06-14T04:59:58;5.63;;;5.03;;
10463;SDS011;5279;42.048;24.638;2023-06-14T05:02:26;6.17;;;4.50;;
10463;SDS011;5279;42.048;24.638;2023-06-14T05:04:53;4.83;;;4.33;;
10463;SDS011;5279;42.048;24.638;2023-06-14T05:07:23;5.63;;;4.20;;
10463;SDS011;5279;42.048;24.638;2023-06-14T05:09:50;4.73;;;4.17;;
10463;SDS011;5279;42.048;24.638;2023-06-14T05:12:17;6.07;;;4.77;;
10463;SDS011;5279;42.048;24.638;2023-06-14T05:14:44;4.70;;;4.30;;
10463;SDS011;5279;42.048;24.638;2023-06-14T05:17:11;4.50;;;4.10;;
10463;SDS011;5279;42.048;24.638;2023-06-14T05:19:38;5.23;;;4.30;;
10463;SDS011;5279;42.048;24.638;2023-06-14T05:22:05;4.20;;;3.80;;
10463;SDS011;5279;42.048;24.638;2023-06-14T05:24:33;4.93;;;4.20;;
10463;SDS011;5279;42.048;24.638;2023-06-14T05:27:00;5.03;;;4.50;;
10463;SDS011;5279;42.048;24.638;2023-06-14T05:29:27;4.47;;;4.07;;
10463;SDS011;5279;42.048;24.638;2023-06-14T05:31:54;4.37;;;4.07;;
10463;SDS011;5279;42.048;24.638;2023-06-14T05:34:20;6.23;;;4.57;;
10463;SDS011;5279;42.048;24.638;2023-06-14T05:36:47;4.50;;;4.10;;
10463;SDS011;5279;42.048;24.638;2023-06-14T05:39:14;4.30;;;4.00;;
10463;SDS011;5279;42.048;24.638;2023-06-14T05:41:43;5.00;;;4.50;;
10463;SDS011;5279;42.048;24.638;2023-06-14T05:44:10;5.37;;;4.53;;
10463;SDS011;5279;42.048;24.638;2023-06-14T05:46:37;4.40;;;4.07;;
10463;SDS011;5279;42.048;24.638;2023-06-14T05:49:05;5.67;;;4.17;;
10463;SDS011;5279;42.048;24.638;2023-06-14T05:51:32;6.33;;;4.30;;
10463;SDS011;5279;42.048;24.638;2023-06-14T05:53:58;4.47;;;4.07;;
10463;SDS011;5279;42.048;24.638;2023-06-14T05:56:26;4.70;;;3.77;;
10463;SDS011;5279;42.048;24.638;2023-06-14T05:58:54;4.30;;;3.90;;
10463;SDS011;5279;42.048;24.638;2023-06-14T06:01:21;4.30;;;3.90;;
10463;SDS011;5279;42.048;24.638;2023-06-14T06:03:48;4.70;;;4.27;;
10463;SDS011;5279;42.048;24.638;2023-06-14T06:06:15;5.33;;;4.33;;
10463;SDS011;5279;42.048;24.638;2023-06-14T06:08:42;6.53;;;4.20;;
10463;SDS011;5279;42.048;24.638;2023-06-14T06:11:09;5.10;;;4.60;;
10463;SDS011;5279;42.048;24.638;2023-06-14T06:13:51;5.17;;;4.77;;
10463;SDS011;5279;42.048;24.638;2023-06-14T06:16:19;4.67;;;4.23;;
10463;SDS011;5279;42.048;24.638;2023-06-14T06:18:46;5.27;;;4.77;;
10463;SDS011;5279;42.048;24.638;2023-06-14T06:21:13;5.57;;;4.60;;
10463;SDS011;5279;42.048;24.638;2023-06-14T06:23:41;4.77;;;4.27;;
10463;SDS011;5279;42.048;24.638;2023-06-14T06:26:07;5.33;;;4.50;;
10463;SDS011;5279;42.048;24.638;2023-06-14T06:28:34;6.17;;;5.60;;
10463;SDS011;5279;42.048;24.638;2023-06-14T06:31:01;5.20;;;4.70;;
10463;SDS011;5279;42.048;24.638;2023-06-14T06:33:29;4.43;;;4.03;;
10463;SDS011;5279;42.048;24.638;2023-06-14T06:35:56;4.47;;;4.07;;
10463;SDS011;5279;42.048;24.638;2023-06-14T06:38:23;4.87;;;4.50;;
10463;SDS011;5279;42.048;24.638;2023-06-14T06:40:50;5.17;;;4.67;;
10463;SDS011;5279;42.048;24.638;2023-06-14T06:43:19;5.53;;;5.03;;
10463;SDS011;5279;42.048;24.638;2023-06-14T06:45:46;5.50;;;5.00;;
10463;SDS011;5279;42.048;24.638;2023-06-14T06:48:13;5.50;;;5.07;;
10463;SDS011;5279;42.048;24.638;2023-06-14T06:50:42;5.43;;;4.93;;
10463;SDS011;5279;42.048;24.638;2023-06-14T06:53:09;6.00;;;5.43;;
10463;SDS011;5279;42.048;24.638;2023-06-14T06:55:36;6.00;;;4.87;;
10463;SDS011;5279;42.048;24.638;2023-06-14T06:58:03;5.30;;;4.80;;
10463;SDS011;5279;42.048;24.638;2023-06-14T07:00:30;5.63;;;5.00;;
10463;SDS011;5279;42.048;24.638;2023-06-14T07:02:57;5.67;;;5.17;;
10463;SDS011;5279;42.048;24.638;2023-06-14T07:05:24;5.23;;;4.83;;
10463;SDS011;5279;42.048;24.638;2023-06-14T07:07:52;5.63;;;4.83;;
10463;SDS011;5279;42.048;24.638;2023-06-14T07:10:19;5.23;;;4.83;;
10463;SDS011;5279;42.048;24.638;2023-06-14T07:12:46;5.47;;;4.90;;
10463;SDS011;5279;42.048;24.638;2023-06-14T07:15:13;4.93;;;4.53;;
10463;SDS011;5279;42.048;24.638;2023-06-14T07:17:40;5.87;;;5.27;;
10463;SDS011;5279;42.048;24.638;2023-06-14T07:20:08;5.37;;;4.87;;
10463;SDS011;5279;42.048;24.638;2023-06-14T07:22:37;5.33;;;4.83;;
10463;SDS011;5279;42.048;24.638;2023-06-14T07:25:07;6.60;;;5.60;;
10463;SDS011;5279;42.048;24.638;2023-06-14T07:27:34;6.80;;;5.77;;
10463;SDS011;5279;42.048;24.638;2023-06-14T07:30:01;6.60;;;4.93;;
10463;SDS011;5279;42.048;24.638;2023-06-14T07:32:29;5.60;;;5.10;;
10463;SDS011;5279;42.048;24.638;2023-06-14T07:34:56;5.87;;;5.27;;
10463;SDS011;5279;42.048;24.638;2023-06-14T07:37:23;5.97;;;5.47;;
10463;SDS011;5279;42.048;24.638;2023-06-14T07:39:49;5.47;;;4.97;;
10463;SDS011;5279;42.048;24.638;2023-06-14T07:42:18;5.77;;;5.27;;
10463;SDS011;5279;42.048;24.638;2023-06-14T07:44:45;5.80;;;5.30;;
10463;SDS011;5279;42.048;24.638;2023-06-14T07:47:11;6.20;;;5.60;;
10463;SDS011;5279;42.048;24.638;2023-06-14T07:49:38;6.60;;;5.20;;
10463;SDS011;5279;42.048;24.638;2023-06-14T07:52:06;5.73;;;5.03;;
10463;SDS011;5279;42.048;24.638;2023-06-14T07:54:33;6.47;;;5.83;;
10463;SDS011;5279;42.048;24.638;2023-06-14T07:57:00;5.83;;;5.33;;
10463;SDS011;5279;42.048;24.638;2023-06-14T07:59:28;5.30;;;4.80;;
10463;SDS011;5279;42.048;24.638;2023-06-14T08:01:55;5.57;;;5.07;;
10463;SDS011;5279;42.048;24.638;2023-06-14T08:04:22;5.97;;;5.13;;
10463;SDS011;5279;42.048;24.638;2023-06-14T08:06:50;6.50;;;4.70;;
10463;SDS011;5279;42.048;24.638;2023-06-14T08:09:17;6.20;;;5.30;;
10463;SDS011;5279;42.048;24.638;2023-06-14T08:11:44;5.00;;;4.57;;
10463;SDS011;5279;42.048;24.638;2023-06-14T08:14:10;4.70;;;4.30;;
10463;SDS011;5279;42.048;24.638;2023-06-14T08:16:39;5.33;;;4.83;;
10463;SDS011;5279;42.048;24.638;2023-06-14T08:19:06;5.60;;;5.10;;
10463;SDS011;5279;42.048;24.638;2023-06-14T08:21:34;6.37;;;4.97;;
10463;SDS011;5279;42.048;24.638;2023-06-14T08:24:01;5.27;;;4.47;;
10463;SDS011;5279;42.048;24.638;2023-06-14T08:26:29;5.43;;;4.57;;
10463;SDS011;5279;42.048;24.638;2023-06-14T08:28:57;5.40;;;5.00;;
10463;SDS011;5279;42.048;24.638;2023-06-14T08:31:24;5.43;;;4.97;;
10463;SDS011;5279;42.048;24.638;2023-06-14T08:33:54;5.70;;;5.20;;
10463;SDS011;5279;42.048;24.638;2023-06-14T08:36:20;5.73;;;5.23;;
10463;SDS011;5279;42.048;24.638;2023-06-14T08:38:48;6.63;;;6.03;;
10463;SDS011;5279;42.048;24.638;2023-06-14T08:41:17;6.10;;;5.60;;
10463;SDS011;5279;42.048;24.638;2023-06-14T08:43:47;6.47;;;5.87;;
10463;SDS011;5279;42.048;24.638;2023-06-14T08:46:14;5.60;;;5.10;;
10463;SDS011;5279;42.048;24.638;2023-06-14T08:48:45;5.87;;;5.20;;
10463;SDS011;5279;42.048;24.638;2023-06-14T08:51:14;7.93;;;6.10;;
10463;SDS011;5279;42.048;24.638;2023-06-14T08:53:48;6.00;;;5.50;;
10463;SDS011;5279;42.048;24.638;2023-06-14T08:56:18;5.93;;;5.33;;
10463;SDS011;5279;42.048;24.638;2023-06-14T08:58:45;5.37;;;4.97;;
10463;SDS011;5279;42.048;24.638;2023-06-14T09:01:13;8.00;;;5.57;;
10463;SDS011;5279;42.048;24.638;2023-06-14T09:03:42;6.23;;;5.73;;
10463;SDS011;5279;42.048;24.638;2023-06-14T09:06:09;6.43;;;5.83;;
10463;SDS011;5279;42.048;24.638;2023-06-14T09:08:40;7.70;;;5.83;;
10463;SDS011;5279;42.048;24.638;2023-06-14T09:11:10;6.80;;;5.93;;
10463;SDS011;5279;42.048;24.638;2023-06-14T09:13:37;8.40;;;5.93;;
10463;SDS011;5279;42.048;24.638;2023-06-14T09:16:04;6.30;;;5.70;;
10463;SDS011;5279;42.048;24.638;2023-06-14T09:18:35;6.10;;;5.60;;
10463;SDS011;5279;42.048;24.638;2023-06-14T09:21:02;6.57;;;5.80;;
10463;SDS011;5279;42.048;24.638;2023-06-14T09:23:29;6.93;;;5.87;;
10463;SDS011;5279;42.048;24.638;2023-06-14T09:26:02;6.67;;;6.03;;
10463;SDS011;5279;42.048;24.638;2023-06-14T09:28:33;6.77;;;6.17;;
10463;SDS011;5279;42.048;24.638;2023-06-14T09:31:00;7.30;;;6.60;;
10463;SDS011;5279;42.048;24.638;2023-06-14T09:33:27;7.33;;;6.63;;
10463;SDS011;5279;42.048;24.638;2023-06-14T09:35:54;10.50;;;6.40;;
10463;SDS011;5279;42.048;24.638;2023-06-14T09:38:21;8.87;;;7.90;;
10463;SDS011;5279;42.048;24.638;2023-06-14T09:40:49;8.07;;;7.17;;
10463;SDS011;5279;42.048;24.638;2023-06-14T09:43:17;7.50;;;6.80;;
10463;SDS011;5279;42.048;24.638;2023-06-14T09:45:46;7.70;;;7.00;;
10463;SDS011;5279;42.048;24.638;2023-06-14T09:48:14;6.80;;;6.20;;
10463;SDS011;5279;42.048;24.638;2023-06-14T09:50:44;8.53;;;7.63;;
10463;SDS011;5279;42.048;24.638;2023-06-14T09:53:12;8.17;;;7.30;;
10463;SDS011;5279;42.048;24.638;2023-06-14T09:55:41;7.37;;;6.67;;
10463;SDS011;5279;42.048;24.638;2023-06-14T09:58:08;7.30;;;6.57;;
10463;SDS011;5279;42.048;24.638;2023-06-14T10:00:38;7.37;;;6.73;;
10463;SDS011;5279;42.048;24.638;2023-06-14T10:03:08;7.70;;;7.00;;
10463;SDS011;5279;42.048;24.638;2023-06-14T10:05:39;7.97;;;7.27;;
10463;SDS011;5279;42.048;24.638;2023-06-14T10:08:08;8.17;;;7.07;;
10463;SDS011;5279;42.048;24.638;2023-06-14T10:10:38;7.93;;;6.93;;
10463;SDS011;5279;42.048;24.638;2023-06-14T10:13:06;7.50;;;6.70;;
10463;SDS011;5279;42.048;24.638;2023-06-14T10:15:35;8.67;;;6.87;;
10463;SDS011;5279;42.048;24.638;2023-06-14T10:18:11;8.60;;;7.43;;
10463;SDS011;5279;42.048;24.638;2023-06-14T10:20:49;7.57;;;6.87;;
10463;SDS011;5279;42.048;24.638;2023-06-14T10:23:22;7.57;;;6.87;;
10463;SDS011;5279;42.048;24.638;2023-06-14T10:25:51;7.47;;;6.83;;
10463;SDS011;5279;42.048;24.638;2023-06-14T10:28:22;7.80;;;7.10;;
10463;SDS011;5279;42.048;24.638;2023-06-14T10:33:39;7.97;;;7.10;;
10463;SDS011;5279;42.048;24.638;2023-06-14T10:36:24;8.60;;;6.70;;
10463;SDS011;5279;42.048;24.638;2023-06-14T10:39:00;8.23;;;6.47;;
10463;SDS011;5279;42.048;24.638;2023-06-14T10:41:30;6.67;;;6.03;;
10463;SDS011;5279;42.048;24.638;2023-06-14T10:44:11;7.20;;;6.57;;
10463;SDS011;5279;42.048;24.638;2023-06-14T10:47:07;8.40;;;6.10;;
10463;SDS011;5279;42.048;24.638;2023-06-14T10:49:37;6.80;;;6.20;;
10463;SDS011;5279;42.048;24.638;2023-06-14T10:52:07;7.33;;;6.63;;
10463;SDS011;5279;42.048;24.638;2023-06-14T10:57:38;7.67;;;6.87;;
10463;SDS011;5279;42.048;24.638;2023-06-14T11:00:07;6.07;;;5.57;;
10463;SDS011;5279;42.048;24.638;2023-06-14T11:02:45;6.90;;;6.23;;
10463;SDS011;5279;42.048;24.638;2023-06-14T11:05:42;6.60;;;5.90;;
10463;SDS011;5279;42.048;24.638;2023-06-14T11:11:29;5.82;;;5.32;;
10463;SDS011;5279;42.048;24.638;2023-06-14T11:13:59;6.30;;;4.88;;
10463;SDS011;5279;42.048;24.638;2023-06-14T11:16:26;5.22;;;4.82;;
10463;SDS011;5279;42.048;24.638;2023-06-14T11:18:55;4.93;;;4.63;;
10463;SDS011;5279;42.048;24.638;2023-06-14T11:21:23;5.20;;;4.80;;
10463;SDS011;5279;42.048;24.638;2023-06-14T11:23:56;5.45;;;4.70;;
10463;SDS011;5279;42.048;24.638;2023-06-14T11:26:26;5.35;;;4.53;;
10463;SDS011;5279;42.048;24.638;2023-06-14T11:28:57;4.65;;;4.22;;
10463;SDS011;5279;42.048;24.638;2023-06-14T11:31:24;4.43;;;4.03;;
10463;SDS011;5279;42.048;24.638;2023-06-14T11:33:53;4.50;;;3.97;;
10463;SDS011;5279;42.048;24.638;2023-06-14T11:36:22;4.57;;;4.17;;
10463;SDS011;5279;42.048;24.638;2023-06-14T11:38:49;4.15;;;3.83;;
10463;SDS011;5279;42.048;24.638;2023-06-14T11:41:16;4.50;;;4.10;;
10463;SDS011;5279;42.048;24.638;2023-06-14T11:43:43;3.60;;;3.30;;
10463;SDS011;5279;42.048;24.638;2023-06-14T11:46:13;4.25;;;3.90;;
10463;SDS011;5279;42.048;24.638;2023-06-14T11:48:43;4.45;;;4.05;;
10463;SDS011;5279;42.048;24.638;2023-06-14T11:51:10;4.63;;;3.97;;
10463;SDS011;5279;42.048;24.638;2023-06-14T11:53:38;4.43;;;4.10;;
10463;SDS011;5279;42.048;24.638;2023-06-14T11:56:05;4.20;;;3.80;;
10463;SDS011;5279;42.048;24.638;2023-06-14T11:58:33;3.93;;;3.63;;
10463;SDS011;5279;42.048;24.638;2023-06-14T12:01:00;4.47;;;4.07;;
10463;SDS011;5279;42.048;24.638;2023-06-14T12:03:29;4.80;;;4.20;;
10463;SDS011;5279;42.048;24.638;2023-06-14T12:06:02;4.60;;;4.20;;
10463;SDS011;5279;42.048;24.638;2023-06-14T12:08:32;4.68;;;4.28;;
10463;SDS011;5279;42.048;24.638;2023-06-14T12:11:05;4.72;;;4.32;;
10463;SDS011;5279;42.048;24.638;2023-06-14T12:13:33;5.43;;;5.00;;
10463;SDS011;5279;42.048;24.638;2023-06-14T12:16:01;4.57;;;4.20;;
10463;SDS011;5279;42.048;24.638;2023-06-14T12:18:33;4.60;;;4.20;;
10463;SDS011;5279;42.048;24.638;2023-06-14T12:21:00;4.40;;;4.00;;
10463;SDS011;5279;42.048;24.638;2023-06-14T12:23:38;3.97;;;3.67;;
10463;SDS011;5279;42.048;24.638;2023-06-14T12:26:07;4.47;;;4.18;;
10463;SDS011;5279;42.048;24.638;2023-06-14T12:28:34;5.88;;;5.43;;
10463;SDS011;5279;42.048;24.638;2023-06-14T12:31:01;7.30;;;6.63;;
10463;SDS011;5279;42.048;24.638;2023-06-14T12:33:28;8.33;;;7.47;;
10463;SDS011;5279;42.048;24.638;2023-06-14T12:35:55;8.10;;;7.40;;
10463;SDS011;5279;42.048;24.638;2023-06-14T12:38:22;7.97;;;7.32;;
10463;SDS011;5279;42.048;24.638;2023-06-14T12:40:49;8.35;;;7.55;;
10463;SDS011;5279;42.048;24.638;2023-06-14T12:43:17;7.43;;;6.72;;
10463;SDS011;5279;42.048;24.638;2023-06-14T12:45:44;8.15;;;7.43;;
10463;SDS011;5279;42.048;24.638;2023-06-14T12:48:11;7.83;;;7.13;;
10463;SDS011;5279;42.048;24.638;2023-06-14T12:50:38;7.93;;;7.23;;
10463;SDS011;5279;42.048;24.638;2023-06-14T12:53:05;7.93;;;7.23;;
10463;SDS011;5279;42.048;24.638;2023-06-14T12:55:32;9.40;;;7.53;;
10463;SDS011;5279;42.048;24.638;2023-06-14T12:57:59;7.80;;;7.07;;
10463;SDS011;5279;42.048;24.638;2023-06-14T13:00:27;7.90;;;7.20;;
10463;SDS011;5279;42.048;24.638;2023-06-14T13:02:55;9.03;;;8.13;;
10463;SDS011;5279;42.048;24.638;2023-06-14T13:05:22;8.13;;;7.43;;
10463;SDS011;5279;42.048;24.638;2023-06-14T13:07:49;8.13;;;7.33;;
10463;SDS011;5279;42.048;24.638;2023-06-14T13:10:17;9.00;;;8.13;;
10463;SDS011;5279;42.048;24.638;2023-06-14T13:12:44;7.87;;;7.17;;
10463;SDS011;5279;42.048;24.638;2023-06-14T13:15:11;36.27;;;27.77;;
10463;SDS011;5279;42.048;24.638;2023-06-14T13:17:39;11.53;;;10.40;;
10463;SDS011;5279;42.048;24.638;2023-06-14T13:20:07;7.77;;;7.07;;
10463;SDS011;5279;42.048;24.638;2023-06-14T13:22:34;10.57;;;9.67;;
10463;SDS011;5279;42.048;24.638;2023-06-14T13:25:02;12.03;;;10.93;;
10463;SDS011;5279;42.048;24.638;2023-06-14T13:27:29;13.70;;;12.30;;
10463;SDS011;5279;42.048;24.638;2023-06-14T13:29:56;11.03;;;10.03;;
10463;SDS011;5279;42.048;24.638;2023-06-14T13:32:23;8.60;;;7.70;;
10463;SDS011;5279;42.048;24.638;2023-06-14T13:34:52;8.95;;;8.15;;
10463;SDS011;5279;42.048;24.638;2023-06-14T13:37:18;13.85;;;12.65;;
10463;SDS011;5279;42.048;24.638;2023-06-14T13:39:45;8.50;;;7.80;;
10463;SDS011;5279;42.048;24.638;2023-06-14T13:42:12;8.30;;;7.60;;
10463;SDS011;5279;42.048;24.638;2023-06-14T13:44:40;13.60;;;12.48;;
10463;SDS011;5279;42.048;24.638;2023-06-14T13:47:07;10.77;;;8.13;;
10463;SDS011;5279;42.048;24.638;2023-06-14T13:49:34;10.55;;;9.38;;
10463;SDS011;5279;42.048;24.638;2023-06-14T13:52:03;11.55;;;10.48;;
10463;SDS011;5279;42.048;24.638;2023-06-14T13:54:30;8.30;;;7.50;;
10463;SDS011;5279;42.048;24.638;2023-06-14T13:56:57;7.38;;;6.68;;
10463;SDS011;5279;42.048;24.638;2023-06-14T13:59:24;8.20;;;7.40;;
10463;SDS011;5279;42.048;24.638;2023-06-14T14:01:51;15.70;;;14.20;;
10463;SDS011;5279;42.048;24.638;2023-06-14T14:04:18;7.87;;;7.17;;
10463;SDS011;5279;42.048;24.638;2023-06-14T14:06:45;7.13;;;6.57;;
10463;SDS011;5279;42.048;24.638;2023-06-14T14:09:13;7.23;;;6.63;;
10463;SDS011;5279;42.048;24.638;2023-06-14T14:11:40;7.43;;;6.83;;
10463;SDS011;5279;42.048;24.638;2023-06-14T14:14:07;7.17;;;6.57;;
10463;SDS011;5279;42.048;24.638;2023-06-14T14:16:35;7.13;;;6.43;;
10463;SDS011;5279;42.048;24.638;2023-06-14T14:19:02;7.13;;;6.43;;
10463;SDS011;5279;42.048;24.638;2023-06-14T14:21:29;8.10;;;7.17;;
10463;SDS011;5279;42.048;24.638;2023-06-14T14:23:56;7.20;;;6.60;;
10463;SDS011;5279;42.048;24.638;2023-06-14T14:26:24;6.60;;;6.00;;
10463;SDS011;5279;42.048;24.638;2023-06-14T14:28:52;6.80;;;6.20;;
10463;SDS011;5279;42.048;24.638;2023-06-14T14:31:18;6.70;;;6.00;;
10463;SDS011;5279;42.048;24.638;2023-06-14T14:33:45;5.77;;;5.30;;
10463;SDS011;5279;42.048;24.638;2023-06-14T14:36:12;6.00;;;5.50;;
10463;SDS011;5279;42.048;24.638;2023-06-14T14:38:39;7.93;;;7.13;;
10463;SDS011;5279;42.048;24.638;2023-06-14T14:41:06;5.63;;;5.03;;
10463;SDS011;5279;42.048;24.638;2023-06-14T14:43:34;6.67;;;5.40;;
10463;SDS011;5279;42.048;24.638;2023-06-14T14:46:01;6.23;;;4.97;;
10463;SDS011;5279;42.048;24.638;2023-06-14T14:48:28;6.40;;;5.70;;
10463;SDS011;5279;42.048;24.638;2023-06-14T14:50:55;5.87;;;5.37;;
10463;SDS011;5279;42.048;24.638;2023-06-14T14:53:21;5.47;;;4.97;;
10463;SDS011;5279;42.048;24.638;2023-06-14T14:55:48;6.07;;;5.50;;
10463;SDS011;5279;42.048;24.638;2023-06-14T14:58:16;5.77;;;5.17;;
10463;SDS011;5279;42.048;24.638;2023-06-14T15:00:45;5.70;;;5.20;;
10463;SDS011;5279;42.048;24.638;2023-06-14T15:03:11;6.93;;;6.23;;